createdAt,value
2023-06-28T00:02:18.037Z,22.90
2023-06-28T00:04:47.713Z,22.80
2023-06-28T00:07:17.944Z,22.70
2023-06-28T00:09:46.381Z,22.60
2023-06-28T00:12:14.778Z,22.50
2023-06-28T00:14:43.090Z,22.40
2023-06-28T00:17:12.589Z,22.20
2023-06-28T00:19:49.036Z,22.20
2023-06-28T00:22:19.165Z,22.20
2023-06-28T00:24:47.514Z,22.10
2023-06-28T00:27:15.831Z,21.90
2023-06-28T00:29:44.243Z,21.90
2023-06-28T01:01:33.091Z,21.10
2023-06-28T01:04:03.972Z,21.10
2023-06-28T01:06:36.729Z,21.20
2023-06-28T01:09:09.032Z,21.00
2023-06-28T01:11:38.341Z,20.90
2023-06-28T01:14:07.888Z,20.80
2023-06-28T02:00:57.484Z,20.00
2023-06-28T02:03:26.148Z,20.10
2023-06-28T02:05:54.552Z,20.10
2023-06-28T02:08:22.997Z,20.10
2023-06-28T02:10:51.454Z,20.10
2023-06-28T02:13:19.922Z,20.10
2023-06-28T02:47:58.541Z,19.70
2023-06-28T02:50:27.186Z,19.70
2023-06-28T02:53:02.209Z,19.70
2023-06-28T02:55:30.924Z,19.60
2023-06-28T02:58:03.720Z,19.60
2023-06-28T03:47:56.737Z,18.80
2023-06-28T03:50:25.583Z,18.90
2023-06-28T03:52:53.938Z,18.80
2023-06-28T03:55:22.396Z,19.10
2023-06-28T03:57:52.020Z,19.40
2023-06-28T04:46:13.201Z,21.80
2023-06-28T04:48:43.712Z,21.80
2023-06-28T04:51:12.167Z,21.90
2023-06-28T04:53:40.518Z,22.00
2023-06-28T04:56:09.236Z,22.00
2023-06-28T04:58:38.900Z,22.10
2023-06-28T05:47:51.293Z,22.10
2023-06-28T05:50:22.660Z,21.70
2023-06-28T05:52:51.768Z,21.80
2023-06-28T05:55:20.251Z,21.90
2023-06-28T05:57:49.163Z,22.00
2023-06-28T06:00:19.005Z,22.10
2023-06-28T06:02:48.967Z,22.10
2023-06-28T06:05:17.763Z,22.20
2023-06-28T06:07:46.646Z,22.20
2023-06-28T06:10:16.661Z,22.20
2023-06-28T06:12:45.626Z,22.30
2023-06-28T06:15:14.154Z,22.30
2023-06-28T06:17:42.715Z,22.40
2023-06-28T06:20:16.260Z,22.40
2023-06-28T06:22:45.023Z,22.50
2023-06-28T06:25:13.569Z,22.50
2023-06-28T06:27:42.060Z,22.50
2023-06-28T06:30:12.817Z,22.50
2023-06-28T06:32:41.362Z,22.50
2023-06-28T06:35:11.898Z,22.50
2023-06-28T06:37:40.393Z,22.60
2023-06-28T06:40:10.429Z,22.60
2023-06-28T06:42:40.005Z,22.60
2023-06-28T06:45:09.784Z,22.60
2023-06-28T06:47:40.100Z,22.60
2023-06-28T06:50:10.513Z,22.60
2023-06-28T06:52:40.651Z,22.60
2023-06-28T06:55:10.034Z,22.70
2023-06-28T06:57:38.578Z,22.70
2023-06-28T07:00:09.942Z,22.70
2023-06-28T07:02:38.492Z,22.70
2023-06-28T07:05:07.617Z,22.70
2023-06-28T07:07:36.140Z,22.70
2023-06-28T07:10:08.896Z,22.70
2023-06-28T07:12:39.207Z,22.70
2023-06-28T07:15:09.067Z,22.70
2023-06-28T07:17:37.658Z,22.70
2023-06-28T07:20:08.352Z,22.70
2023-06-28T07:22:36.779Z,22.70
2023-06-28T07:25:07.660Z,22.70
2023-06-28T07:27:36.349Z,22.80
2023-06-28T07:30:05.647Z,22.80
2023-06-28T07:32:34.023Z,22.80
2023-06-28T07:35:02.521Z,22.80
2023-06-28T07:37:31.476Z,22.80
2023-06-28T07:40:00.166Z,22.80
2023-06-28T07:42:29.894Z,22.90
2023-06-28T07:44:59.337Z,22.90
2023-06-28T07:47:27.672Z,22.90
2023-06-28T07:49:56.191Z,22.90
2023-06-28T07:52:24.568Z,22.90
2023-06-28T07:54:52.928Z,22.90
2023-06-28T07:57:21.277Z,23.00
2023-06-28T07:59:50.990Z,23.00
2023-06-28T08:02:19.377Z,23.00
2023-06-28T08:04:47.720Z,22.90
2023-06-28T08:07:16.716Z,23.00
2023-06-28T08:09:45.242Z,23.00
2023-06-28T08:12:13.637Z,23.00
2023-06-28T08:14:42.016Z,23.00
2023-06-28T08:17:11.696Z,23.00
2023-06-28T08:19:40.135Z,23.00
2023-06-28T08:22:08.679Z,23.00
2023-06-28T08:24:37.177Z,23.00
2023-06-28T08:27:06.425Z,23.00
2023-06-28T08:29:35.116Z,23.00
2023-06-28T08:32:03.707Z,23.00
2023-06-28T08:34:33.461Z,23.00
2023-06-28T08:37:01.822Z,23.00
2023-06-28T08:39:30.292Z,23.00
2023-06-28T08:42:00.092Z,23.00
2023-06-28T08:44:36.597Z,23.00
2023-06-28T08:47:07.243Z,23.00
2023-06-28T08:49:38.553Z,23.00
2023-06-28T08:52:08.616Z,23.00
2023-06-28T08:54:38.208Z,23.00
2023-06-28T08:57:12.418Z,23.00
2023-06-28T08:59:42.143Z,23.00
2023-06-28T09:02:17.062Z,23.00
2023-06-28T09:04:49.647Z,23.00
2023-06-28T09:07:20.705Z,23.10
2023-06-28T09:09:50.403Z,23.10
2023-06-28T09:12:20.084Z,23.10
2023-06-28T09:14:48.968Z,23.10
2023-06-28T09:17:17.789Z,23.00
2023-06-28T09:19:47.753Z,23.00
2023-06-28T09:22:17.803Z,23.10
2023-06-28T09:24:51.525Z,23.10
2023-06-28T09:27:19.870Z,23.10
2023-06-28T09:30:10.569Z,23.10
2023-06-28T09:32:42.917Z,23.10
2023-06-28T09:35:14.711Z,23.10
2023-06-28T09:37:43.794Z,23.10
2023-06-28T09:40:18.113Z,23.20
2023-06-28T09:42:48.146Z,23.20
2023-06-28T09:45:31.423Z,23.20
2023-06-28T09:48:02.116Z,23.20
2023-06-28T09:50:45.260Z,23.20
2023-06-28T09:53:16.556Z,23.30
2023-06-28T09:55:47.081Z,23.30
2023-06-28T09:58:18.171Z,23.20
2023-06-28T10:00:53.403Z,23.20
2023-06-28T10:03:29.253Z,23.20
2023-06-28T10:06:00.752Z,23.20
2023-06-28T10:08:29.540Z,23.20
2023-06-28T10:10:58.144Z,23.20
2023-06-28T10:13:28.733Z,23.20
2023-06-28T10:16:04.657Z,23.20
2023-06-28T10:18:33.873Z,23.20
2023-06-28T10:21:08.005Z,23.20
2023-06-28T10:23:37.467Z,23.20
2023-06-28T10:26:05.863Z,23.20
2023-06-28T10:28:35.743Z,23.20
2023-06-28T10:31:05.976Z,23.20
2023-06-28T10:33:37.386Z,23.20
2023-06-28T10:36:07.549Z,23.20
2023-06-28T10:38:39.154Z,23.20
2023-06-28T10:41:09.353Z,23.30
2023-06-28T10:43:38.260Z,23.30
2023-06-28T10:46:25.169Z,23.30
2023-06-28T10:49:00.824Z,23.20
2023-06-28T10:51:35.067Z,23.30
2023-06-28T10:54:13.982Z,23.30
2023-06-28T10:56:50.085Z,23.30
2023-06-28T10:59:20.703Z,23.30
2023-06-28T11:01:57.065Z,23.30
2023-06-28T11:04:27.303Z,23.30
2023-06-28T11:07:19.249Z,23.30
2023-06-28T11:10:17.399Z,23.30
2023-06-28T11:12:49.574Z,23.30
2023-06-28T11:15:29.719Z,23.30
2023-06-28T11:18:10.879Z,23.30
2023-06-28T11:20:50.551Z,23.30
2023-06-28T11:23:32.196Z,23.30
2023-06-28T11:26:04.906Z,23.30
2023-06-28T11:28:35.653Z,23.30
2023-06-28T11:31:20.168Z,23.30
2023-06-28T11:33:52.254Z,23.30
2023-06-28T11:36:20.757Z,23.40
2023-06-28T11:38:50.862Z,23.40
2023-06-28T11:41:19.779Z,23.40
2023-06-28T11:43:50.182Z,23.50
2023-06-28T11:46:20.084Z,23.50
2023-06-28T11:48:51.278Z,23.50
2023-06-28T11:51:19.901Z,23.50
2023-06-28T11:53:51.192Z,23.60
2023-06-28T11:56:19.718Z,23.60
2023-06-28T11:58:48.173Z,23.50
2023-06-28T12:01:23.931Z,23.50
2023-06-28T12:03:52.475Z,23.50
2023-06-28T12:06:22.175Z,23.50
2023-06-28T12:08:52.028Z,23.50
2023-06-28T12:11:20.974Z,23.50
2023-06-28T12:13:50.699Z,23.40
2023-06-28T12:16:22.729Z,23.50
2023-06-28T12:18:59.064Z,23.50
2023-06-28T12:21:29.570Z,23.40
2023-06-28T12:26:55.269Z,23.50
2023-06-28T12:29:25.006Z,23.50
2023-06-28T12:31:56.191Z,23.50
2023-06-28T12:34:25.859Z,23.50
2023-06-28T12:36:56.461Z,23.50
2023-06-28T12:39:27.844Z,23.50
2023-06-28T12:42:06.999Z,23.50
2023-06-28T12:44:51.792Z,23.50
2023-06-28T12:47:21.917Z,23.50
2023-06-28T12:49:52.587Z,23.50
2023-06-28T12:52:22.103Z,23.50
2023-06-28T12:54:52.254Z,23.50
2023-06-28T12:57:23.795Z,23.50
2023-06-28T12:59:52.796Z,23.50
2023-06-28T13:02:21.513Z,23.50
2023-06-28T13:04:50.552Z,23.50
2023-06-28T13:07:19.772Z,23.50
2023-06-28T13:09:48.609Z,23.50
2023-06-28T13:12:17.318Z,23.50
2023-06-28T13:14:47.537Z,23.50
2023-06-28T13:17:16.093Z,23.50
2023-06-28T13:19:44.796Z,23.50
2023-06-28T13:22:13.358Z,23.50
2023-06-28T13:24:41.965Z,23.50
2023-06-28T13:27:10.771Z,23.60
2023-06-28T13:29:39.285Z,23.60
2023-06-28T13:32:11.122Z,23.60
2023-06-28T13:34:39.859Z,23.60
2023-06-28T13:37:23.184Z,23.60
2023-06-28T13:39:56.488Z,23.60
2023-06-28T13:42:26.158Z,23.60
2023-06-28T13:44:54.965Z,23.70
2023-06-28T13:47:25.195Z,23.70
2023-06-28T13:49:53.750Z,23.70
2023-06-28T13:52:22.273Z,23.80
2023-06-28T13:54:50.923Z,23.80
2023-06-28T13:57:19.614Z,23.80
2023-06-28T13:59:48.401Z,23.80
2023-06-28T14:02:17.898Z,23.80
2023-06-28T14:04:48.385Z,23.90
2023-06-28T14:07:17.224Z,23.90
2023-06-28T14:09:45.721Z,23.90
2023-06-28T14:12:14.953Z,23.80
2023-06-28T14:14:43.533Z,23.90
2023-06-28T14:17:12.293Z,23.90
2023-06-28T14:19:40.723Z,23.90
2023-06-28T14:22:10.754Z,23.80
2023-06-28T14:24:41.445Z,23.80
2023-06-28T14:27:09.973Z,23.80
2023-06-28T14:29:39.254Z,23.80
2023-06-28T14:32:09.463Z,23.80
2023-06-28T14:34:37.865Z,23.80
2023-06-28T14:37:06.914Z,23.80
2023-06-28T14:39:36.950Z,23.80
2023-06-28T14:42:06.252Z,23.80
2023-06-28T14:44:34.745Z,23.90
2023-06-28T14:47:04.768Z,23.90
2023-06-28T14:49:33.235Z,23.90
2023-06-28T14:52:01.744Z,23.90
2023-06-28T14:54:30.219Z,23.90
2023-06-28T14:57:02.403Z,23.80
2023-06-28T14:59:30.904Z,23.90
2023-06-28T15:01:59.828Z,23.80
2023-06-28T15:04:29.035Z,23.80
2023-06-28T15:06:57.804Z,23.80
2023-06-28T15:09:26.238Z,23.80
2023-06-28T15:11:54.717Z,23.90
2023-06-28T15:14:24.595Z,23.90
2023-06-28T15:16:53.525Z,23.90
2023-06-28T15:19:22.041Z,23.90
2023-06-28T15:21:50.381Z,23.90
2023-06-28T15:24:18.911Z,23.90
2023-06-28T15:26:47.434Z,23.90
2023-06-28T15:29:16.065Z,23.90
2023-06-28T15:31:45.909Z,23.90
2023-06-28T15:34:14.435Z,23.90
2023-06-28T15:36:43.085Z,24.00
2023-06-28T15:39:11.567Z,24.00
2023-06-28T15:41:40.502Z,24.00
2023-06-28T15:44:10.180Z,24.00
2023-06-28T15:46:39.369Z,24.10
2023-06-28T15:49:09.459Z,24.00
2023-06-28T15:51:38.009Z,24.10
2023-06-28T15:54:06.755Z,24.10
2023-06-28T15:56:35.302Z,24.10
2023-06-28T15:59:03.712Z,24.10
2023-06-28T16:01:32.144Z,24.10
2023-06-28T16:04:00.664Z,24.10
2023-06-28T16:06:31.174Z,24.10
2023-06-28T16:08:59.855Z,24.10
2023-06-28T16:11:30.318Z,24.10
2023-06-28T16:13:59.298Z,24.10
2023-06-28T16:16:29.789Z,24.10
2023-06-28T16:18:58.694Z,24.10
2023-06-28T16:21:27.071Z,24.10
2023-06-28T16:23:59.337Z,24.10
2023-06-28T16:26:28.104Z,24.10
2023-06-28T16:28:56.953Z,24.10
2023-06-28T16:31:26.501Z,24.10
2023-06-28T16:33:54.972Z,24.20
2023-06-28T16:36:23.545Z,24.10
2023-06-28T16:38:52.056Z,24.10
2023-06-28T16:41:21.911Z,24.10
2023-06-28T16:43:50.329Z,24.10
2023-06-28T16:46:18.855Z,24.10
2023-06-28T16:48:47.464Z,24.10
2023-06-28T16:51:16.201Z,24.10
2023-06-28T16:53:46.832Z,24.10
2023-06-28T16:56:15.645Z,24.10
2023-06-28T16:58:45.525Z,24.10
2023-06-28T17:01:14.351Z,24.00
2023-06-28T17:03:43.510Z,24.10
2023-06-28T17:06:12.139Z,24.10
2023-06-28T17:08:41.842Z,24.10
2023-06-28T17:11:10.318Z,24.00
2023-06-28T17:13:38.909Z,24.10
2023-06-28T17:16:09.475Z,24.10
2023-06-28T17:18:39.301Z,24.10
2023-06-28T17:21:07.899Z,24.10
2023-06-28T17:23:36.669Z,24.10
2023-06-28T17:26:05.148Z,24.10
2023-06-28T17:28:33.783Z,24.10
2023-06-28T17:31:02.440Z,24.10
2023-06-28T17:33:32.338Z,24.10
2023-06-28T17:36:00.932Z,24.10
2023-06-28T17:38:29.419Z,24.00
2023-06-28T17:40:59.785Z,24.10
2023-06-28T17:43:28.190Z,24.10
2023-06-28T17:45:58.183Z,24.10
2023-06-28T17:48:26.644Z,24.10
2023-06-28T17:50:56.461Z,24.10
2023-06-28T17:53:24.908Z,24.10
2023-06-28T17:55:53.459Z,24.10
2023-06-28T17:58:21.906Z,24.10
2023-06-28T18:00:50.357Z,24.20
2023-06-28T18:03:18.743Z,24.20
2023-06-28T18:05:47.108Z,24.20
2023-06-28T18:08:17.360Z,24.30
2023-06-28T18:10:45.775Z,24.30
2023-06-28T18:13:14.270Z,24.50
2023-06-28T18:15:42.682Z,24.50
2023-06-28T18:18:11.131Z,24.50
2023-06-28T18:20:39.550Z,24.60
2023-06-28T18:23:08.073Z,24.60
2023-06-28T18:25:37.891Z,24.50
2023-06-28T18:28:06.618Z,24.50
2023-06-28T18:30:35.053Z,24.50
2023-06-28T18:33:03.550Z,24.50
2023-06-28T18:35:34.672Z,24.50
2023-06-28T18:38:05.207Z,24.40
2023-06-28T18:40:33.823Z,24.40
2023-06-28T18:43:06.474Z,24.40
2023-06-28T18:45:35.090Z,24.40
2023-06-28T18:48:06.649Z,24.30
2023-06-28T18:50:35.386Z,24.30
2023-06-28T18:53:04.247Z,24.30
2023-06-28T18:55:32.830Z,24.30
2023-06-28T18:58:01.183Z,24.30
2023-06-28T19:00:31.145Z,24.30
2023-06-28T19:02:59.725Z,24.30
2023-06-28T19:05:28.263Z,24.30
2023-06-28T19:07:56.962Z,24.30
2023-06-28T19:10:25.403Z,24.30
2023-06-28T19:12:54.015Z,24.30
2023-06-28T19:15:23.512Z,24.30
2023-06-28T19:17:54.276Z,24.30
2023-06-28T19:20:23.439Z,24.30
2023-06-28T19:22:52.263Z,24.30
2023-06-28T19:25:20.855Z,24.30
2023-06-28T19:27:50.425Z,24.40
2023-06-28T19:30:18.872Z,24.40
2023-06-28T19:32:47.804Z,24.30
2023-06-28T19:35:17.813Z,24.30
2023-06-28T19:37:46.224Z,24.40
2023-06-28T19:40:15.289Z,24.30
2023-06-28T19:42:44.064Z,24.40
2023-06-28T19:45:13.116Z,24.40
2023-06-28T19:47:41.710Z,24.40
2023-06-28T19:50:11.090Z,24.50
2023-06-28T19:52:40.931Z,24.50
2023-06-28T19:55:11.026Z,24.50
2023-06-28T19:57:39.361Z,24.50
2023-06-28T20:00:10.142Z,24.50
2023-06-28T20:02:45.386Z,24.50
2023-06-28T20:05:14.124Z,24.50
2023-06-28T20:07:44.333Z,24.50
2023-06-28T20:10:12.962Z,24.50
2023-06-28T20:12:41.426Z,24.60
2023-06-28T20:15:11.862Z,24.50
2023-06-28T20:17:40.640Z,24.60
2023-06-28T20:20:10.508Z,24.50
2023-06-28T20:22:39.291Z,24.50
2023-06-28T20:25:10.481Z,24.50
2023-06-28T20:27:39.836Z,24.50
2023-06-28T20:30:10.684Z,24.50
2023-06-28T20:32:39.525Z,24.50
2023-06-28T20:35:09.925Z,24.50
2023-06-28T20:37:38.515Z,24.50
2023-06-28T20:40:11.622Z,24.50
2023-06-28T20:42:40.146Z,24.50
2023-06-28T20:45:10.634Z,24.50
2023-06-28T20:47:39.364Z,24.50
2023-06-28T20:50:09.440Z,24.50
2023-06-28T20:52:38.117Z,24.50
2023-06-28T20:55:07.786Z,24.50
2023-06-28T20:57:37.603Z,24.50
2023-06-28T21:00:13.152Z,24.50
2023-06-28T21:02:41.790Z,24.50
2023-06-28T21:05:11.757Z,24.40
2023-06-28T21:07:40.418Z,24.50
2023-06-28T21:10:10.158Z,24.50
2023-06-28T21:12:40.021Z,24.50
2023-06-28T21:15:09.992Z,24.50
2023-06-28T21:17:38.485Z,24.50
2023-06-28T21:20:09.997Z,24.40
2023-06-28T21:22:39.727Z,24.50
2023-06-28T21:25:09.252Z,24.50
2023-06-28T21:27:39.107Z,24.50
2023-06-28T21:30:10.017Z,24.50
2023-06-28T21:32:38.563Z,24.50
2023-06-28T21:35:08.302Z,24.50
2023-06-28T21:37:36.694Z,24.50
2023-06-28T21:40:05.790Z,24.50
2023-06-28T21:42:34.290Z,24.60
2023-06-28T21:45:04.882Z,24.60
2023-06-28T21:47:33.385Z,24.60
2023-06-28T21:50:01.910Z,24.60
2023-06-28T21:52:30.572Z,24.60
2023-06-28T21:54:58.990Z,24.60
2023-06-28T21:57:27.439Z,24.60
2023-06-28T21:59:55.812Z,24.60
2023-06-28T22:02:25.649Z,24.60
2023-06-28T22:04:54.104Z,24.50
2023-06-28T22:07:23.098Z,24.60
2023-06-28T22:09:54.806Z,24.50
2023-06-28T22:12:26.835Z,24.50
2023-06-28T22:14:56.700Z,24.50
2023-06-28T22:17:29.696Z,24.50
2023-06-28T22:19:58.142Z,24.50
2023-06-28T22:22:27.308Z,24.50
2023-06-28T22:24:56.173Z,24.40
2023-06-28T22:27:25.883Z,24.40
2023-06-28T22:29:54.853Z,24.40
2023-06-28T22:32:23.572Z,24.30
2023-06-28T22:34:53.680Z,24.30
2023-06-28T22:37:22.458Z,24.30
2023-06-28T22:39:51.330Z,24.30
2023-06-28T22:42:19.998Z,24.30
2023-06-28T22:44:48.397Z,24.30
2023-06-28T22:47:16.953Z,24.30
2023-06-28T22:49:45.305Z,24.30
2023-06-28T22:52:15.266Z,24.20
2023-06-28T22:54:43.684Z,24.20
2023-06-28T22:57:12.236Z,24.20
2023-06-28T22:59:40.650Z,24.20
2023-06-28T23:02:09.082Z,24.20
2023-06-28T23:04:38.173Z,24.20
2023-06-28T23:07:06.621Z,24.20
2023-06-28T23:09:36.936Z,24.20
2023-06-28T23:12:07.416Z,24.10
2023-06-28T23:14:35.802Z,24.20
2023-06-28T23:17:04.962Z,24.10
2023-06-28T23:19:34.136Z,24.10
2023-06-28T23:22:03.654Z,24.10
2023-06-28T23:24:32.322Z,24.10
2023-06-28T23:27:02.049Z,24.10
2023-06-28T23:29:31.036Z,24.10
2023-06-28T23:31:59.850Z,24.10
2023-06-28T23:34:30.148Z,24.10
2023-06-28T23:36:58.842Z,24.10
2023-06-28T23:39:27.238Z,24.10
2023-06-28T23:41:56.941Z,24.10
2023-06-28T23:44:26.698Z,24.00
2023-06-28T23:46:57.126Z,24.00
2023-06-28T23:49:26.130Z,24.00
2023-06-28T23:51:55.167Z,24.00
2023-06-28T23:54:24.070Z,24.00
2023-06-28T23:56:52.358Z,24.00
2023-06-28T23:59:21.072Z,24.00
